Walnut Ridge, AR

6:06 AM CST on November 24, 2017 (GMT -0600)
Walnut Ridge Regional

Weather History for KARG - January, 2012

Change the Weather History Date:

Wednesday, January 11, 2012

  Actual Average Record
Temperature  
Mean Temperature 48 °F -  
Max Temperature 53 °F 42 °F 69 °F (2005)
Min Temperature 42 °F 28 °F 3 °F (1997)
Degree Days  
Heating Degree Days 18    
Moisture  
Dew Point 43 °F    
Average Humidity 89    
Maximum Humidity 100    
Minimum Humidity 71    
Precipitation  
Precipitation 0.77 in - - ()
Sea Level Pressure  
Sea Level Pressure 29.61 in    
Wind  
Wind Speed 8 mph (West)    
Max Wind Speed 12 mph    
Max Gust Speed -    
Visibility 6 miles    
Events      
Averages and records for this station are not official NWS values.
T = Trace of Precipitation, MM = Missing Value Source: NWS Daily Summary

Daily Weather History Graph

Daily Weather History Graph

Search for Another Location

Airport or City:

Trip Planner

Search our weather history database for the weather conditions in past years. The results will help you decide how hot, cold, wet, or windy it might be!

Date:

Astronomy

Jan. 11, 2012 Rise Set
Actual Time 7:14 AM CST 5:08 PM CST
Civil Twilight 6:46 AM CST 5:36 PM CST
Nautical Twilight 6:14 AM CST 6:08 PM CST
Astronomical Twilight 5:43 AM CST 6:39 PM CST
Moon 8:00 PM CST (1/11) 8:32 AM CST (1/11)
Length of Visible Light 10h 49m
Length of Day
9h 53m
Waning Gibbous, 93% of the Moon is Illuminated
Jan 11
Waning Gibbous
Jan 16
Last Quarter
Jan 23
New
Jan 30
First Quarter
Feb 7
Full

Hourly Weather History & Observations

Time (CST) Temp. Windchill Dew Point Humidity Pressure Visibility Wind Dir Wind Speed Gust Speed Precip Events Conditions
12:15 AM 42.8 °F 39.3 °F 42.8 °F 100% 29.66 in 2.5 mi North 5.8 mph - N/A   Overcast
12:35 AM 42.8 °F 38.0 °F 42.8 °F 100% 29.66 in 1.8 mi North 8.1 mph - N/A   Overcast
12:55 AM 42.8 °F 37.5 °F 42.8 °F 100% 29.65 in 1.5 mi NNW 9.2 mph - N/A   Overcast
1:15 AM 42.8 °F 37.0 °F 42.8 °F 100% 29.64 in 1.2 mi NNW 10.4 mph - N/A   Overcast
1:35 AM 42.8 °F 38.6 °F 42.8 °F 100% 29.64 in 1.5 mi NNW 6.9 mph - N/A   Overcast
1:55 AM 42.8 °F 37.0 °F 42.8 °F 100% 29.64 in 1.2 mi NNW 10.4 mph - N/A   Overcast
2:15 AM 42.8 °F 36.6 °F 42.8 °F 100% 29.62 in 1.0 mi NNW 11.5 mph - N/A   Overcast
2:35 AM 42.8 °F 37.5 °F 42.8 °F 100% 29.62 in 1.2 mi NNW 9.2 mph - N/A   Overcast
3:15 AM 42.8 °F 37.5 °F 42.8 °F 100% 29.60 in 1.5 mi NW 9.2 mph - N/A   Overcast
3:56 AM 42.8 °F 38.0 °F 42.8 °F 100% 29.59 in 1.5 mi NW 8.1 mph - N/A   Overcast
4:15 AM 42.8 °F 38.0 °F 42.8 °F 100% 29.59 in 1.5 mi NW 8.1 mph - N/A   Overcast
4:35 AM 42.8 °F 37.5 °F 42.8 °F 100% 29.59 in 1.2 mi NW 9.2 mph - N/A   Overcast
4:55 AM 42.8 °F 37.5 °F 42.8 °F 100% 29.59 in 1.2 mi NW 9.2 mph - N/A   Overcast
5:15 AM 42.8 °F 38.0 °F 41.0 °F 93% 29.60 in 1.2 mi NW 8.1 mph - N/A   Overcast
5:35 AM 42.8 °F 38.6 °F 41.0 °F 93% 29.59 in 1.5 mi NW 6.9 mph - N/A   Overcast
5:55 AM 42.8 °F 38.6 °F 42.8 °F 100% 29.59 in 1.8 mi NW 6.9 mph - N/A   Overcast
6:15 AM 42.8 °F 39.3 °F 41.0 °F 93% 29.60 in 1.8 mi NW 5.8 mph - N/A   Overcast
6:35 AM 42.8 °F 39.3 °F 41.0 °F 93% 29.59 in 2.0 mi WNW 5.8 mph - N/A   Overcast
6:55 AM 42.8 °F 39.3 °F 41.0 °F 93% 29.61 in 2.0 mi WNW 5.8 mph - N/A   Overcast
7:15 AM 42.8 °F 38.6 °F 42.8 °F 100% 29.61 in 2.5 mi WNW 6.9 mph - N/A   Overcast
7:35 AM 42.8 °F 39.3 °F 41.0 °F 93% 29.61 in 1.0 mi West 5.8 mph - N/A   Overcast
7:55 AM 42.8 °F 39.3 °F 42.8 °F 100% 29.60 in 2.5 mi West 5.8 mph - N/A   Overcast
8:15 AM 44.6 °F 40.7 °F 42.8 °F 93% 29.61 in 5.0 mi West 6.9 mph - N/A   Overcast
8:35 AM 44.6 °F 39.7 °F 42.8 °F 93% 29.62 in 6.0 mi West 9.2 mph - N/A   Overcast
8:55 AM 44.6 °F 39.2 °F 42.8 °F 93% 29.63 in 8.0 mi West 10.4 mph - N/A   Overcast
9:15 AM 44.6 °F 38.8 °F 42.8 °F 93% 29.64 in 9.0 mi WNW 11.5 mph - N/A   Overcast
9:35 AM 44.6 °F 40.2 °F 42.8 °F 93% 29.64 in 9.0 mi WNW 8.1 mph - N/A   Overcast
9:55 AM 44.6 °F 40.2 °F 42.8 °F 93% 29.64 in 9.0 mi WNW 8.1 mph - N/A   Overcast
10:15 AM 44.6 °F 40.2 °F 42.8 °F 93% 29.64 in 9.0 mi WNW 8.1 mph - N/A   Overcast
10:35 AM 44.6 °F 39.2 °F 42.8 °F 93% 29.64 in 10.0 mi West 10.4 mph - N/A   Overcast
10:55 AM 46.4 °F 41.9 °F 42.8 °F 87% 29.63 in 9.0 mi WNW 9.2 mph - N/A   Overcast
11:55 AM 46.4 °F 43.5 °F 42.8 °F 87% 29.61 in 10.0 mi WNW 5.8 mph - N/A   Overcast
12:15 PM 46.4 °F 43.5 °F 42.8 °F 87% 29.61 in 10.0 mi West 5.8 mph - N/A   Overcast
12:35 PM 48.2 °F - 42.8 °F 82% 29.60 in 10.0 mi West 8.1 mph - N/A   Overcast
12:55 PM 48.2 °F - 42.8 °F 82% 29.59 in 10.0 mi West 9.2 mph - N/A   Overcast
1:15 PM 48.2 °F - 42.8 °F 82% 29.59 in 10.0 mi West 8.1 mph - N/A   Overcast
1:35 PM 50.0 °F - 42.8 °F 76% 29.59 in 10.0 mi WNW 9.2 mph - N/A   Overcast
1:55 PM 51.8 °F - 42.8 °F 71% 29.59 in 10.0 mi West 6.9 mph - N/A   Overcast
2:15 PM 51.8 °F - 42.8 °F 71% 29.59 in 10.0 mi West 5.8 mph - N/A   Overcast
2:35 PM 51.8 °F - 42.8 °F 71% 29.59 in 10.0 mi West 6.9 mph - N/A   Overcast
2:55 PM 51.8 °F - 42.8 °F 71% 29.59 in 10.0 mi WSW 5.8 mph - N/A   Overcast
3:15 PM 51.8 °F - 44.6 °F 76% 29.60 in 10.0 mi South 5.8 mph - N/A   Overcast
3:35 PM 53.6 °F - 44.6 °F 72% 29.60 in 10.0 mi SSE 5.8 mph - N/A   Overcast
3:55 PM 51.8 °F - 46.4 °F 82% 29.61 in 10.0 mi South 6.9 mph - N/A   Overcast
4:15 PM 51.8 °F - 46.4 °F 82% 29.61 in 10.0 mi South 5.8 mph - N/A   Overcast
4:55 PM 51.8 °F - 46.4 °F 82% 29.61 in 10.0 mi SE 5.8 mph - N/A   Overcast
5:15 PM 50.0 °F - 44.6 °F 82% 29.61 in 10.0 mi SSE 5.8 mph - N/A   Scattered Clouds
5:35 PM 46.4 °F 42.4 °F 42.8 °F 87% 29.61 in 10.0 mi South 8.1 mph - N/A   Clear
6:15 PM 48.2 °F - 42.8 °F 82% 29.62 in 10.0 mi SSW 8.1 mph - N/A   Mostly Cloudy
6:35 PM 48.2 °F - 42.8 °F 82% 29.62 in 10.0 mi SSW 8.1 mph - N/A   Overcast
6:55 PM 48.2 °F - 42.8 °F 82% 29.62 in 10.0 mi South 10.4 mph - N/A   Overcast
7:15 PM 48.2 °F - 42.8 °F 82% 29.63 in 10.0 mi SSW 8.1 mph - N/A   Overcast
7:35 PM 48.2 °F - 42.8 °F 82% 29.63 in 10.0 mi SSW 10.4 mph - N/A   Overcast
8:15 PM 48.2 °F - 42.8 °F 82% 29.63 in 10.0 mi SSW 9.2 mph - N/A   Overcast
8:35 PM 46.4 °F 42.4 °F 42.8 °F 87% 29.64 in 10.0 mi SSW 8.1 mph - N/A   Scattered Clouds
8:55 PM 44.6 °F 42.2 °F 42.8 °F 93% 29.63 in 10.0 mi South 4.6 mph - N/A   Clear
9:15 PM 42.8 °F 37.5 °F 41.0 °F 93% 29.62 in 10.0 mi South 9.2 mph - N/A   Clear
9:35 PM 42.8 °F 37.5 °F 42.8 °F 100% 29.63 in 10.0 mi SSW 9.2 mph - N/A   Clear
9:55 PM 44.6 °F 38.8 °F 42.8 °F 93% 29.64 in 10.0 mi SW 11.5 mph - N/A   Scattered Clouds
10:15 PM 44.6 °F 40.2 °F 42.8 °F 93% 29.63 in 10.0 mi SW 8.1 mph - N/A   Mostly Cloudy
10:35 PM 44.6 °F 40.2 °F 42.8 °F 93% 29.64 in 10.0 mi SW 8.1 mph - N/A   Partly Cloudy
10:55 PM 44.6 °F 39.7 °F 42.8 °F 93% 29.64 in 4.0 mi WSW 9.2 mph - N/A   Clear
11:15 PM 44.6 °F 40.2 °F 41.0 °F 87% 29.64 in 10.0 mi WSW 8.1 mph - N/A   Clear
11:35 PM 44.6 °F 38.8 °F 37.4 °F 76% 29.66 in 10.0 mi West 11.5 mph - N/A   Clear
11:55 PM 44.6 °F 39.2 °F 37.4 °F 76% 29.65 in 10.0 mi WNW 10.4 mph - N/A   Clear